createdAt,value
2022-09-21T00:00:41.109Z,93.10
2022-09-21T00:03:38.221Z,93.12
2022-09-21T00:06:35.958Z,93.33
2022-09-21T00:09:33.180Z,92.80
2022-09-21T00:12:31.476Z,93.96
2022-09-21T00:15:29.293Z,94.04
2022-09-21T00:18:26.406Z,93.19
2022-09-21T00:21:23.890Z,92.95
2022-09-21T00:24:21.172Z,93.90
2022-09-21T00:27:18.041Z,94.70
2022-09-21T00:30:15.519Z,93.31
2022-09-21T00:33:13.532Z,91.90
2022-09-21T00:36:12.478Z,94.23
2022-09-21T00:39:09.476Z,95.08
2022-09-21T00:42:23.419Z,93.75
2022-09-21T00:45:23.337Z,94.03
2022-09-21T00:48:20.010Z,94.57
2022-09-21T00:51:17.328Z,94.23
2022-09-21T00:54:18.048Z,94.30
2022-09-21T00:57:14.956Z,93.88
2022-09-21T01:00:12.540Z,94.11
2022-09-21T01:03:09.662Z,91.31
2022-09-21T01:06:07.607Z,87.84
2022-09-21T01:09:04.553Z,89.12
2022-09-21T01:12:49.279Z,91.12
2022-09-21T01:16:07.663Z,92.78
2022-09-21T01:19:27.400Z,91.90
2022-09-21T01:22:58.666Z,92.17
2022-09-21T01:26:15.005Z,91.51
2022-09-21T01:29:17.061Z,92.17
2022-09-21T01:32:20.900Z,90.68
2022-09-21T01:35:20.557Z,90.07
2022-09-21T01:38:23.881Z,88.01
2022-09-21T01:41:22.999Z,89.32
2022-09-21T01:44:22.963Z,90.53
2022-09-21T01:47:20.350Z,92.35
2022-09-21T01:50:17.497Z,93.93
2022-09-21T01:53:26.152Z,93.95
2022-09-21T01:56:43.978Z,95.66
2022-09-21T01:59:55.797Z,94.95
2022-09-21T02:02:55.858Z,94.87
2022-09-21T02:05:53.850Z,93.97
2022-09-21T02:08:51.085Z,94.06
2022-09-21T02:11:48.459Z,91.64
2022-09-21T02:14:45.805Z,90.64
2022-09-21T02:18:14.234Z,92.28
2022-09-21T02:21:41.699Z,92.45
2022-09-21T02:24:47.262Z,92.43
2022-09-21T02:28:13.829Z,92.82
2022-09-21T02:31:52.281Z,93.22
2022-09-21T02:34:53.998Z,91.66
2022-09-21T02:37:56.774Z,91.73
2022-09-21T02:40:56.869Z,94.38
2022-09-21T02:44:02.602Z,94.04
2022-09-21T02:47:13.157Z,92.40
2022-09-21T02:50:13.153Z,91.73
2022-09-21T02:53:10.262Z,91.04
2022-09-21T02:56:07.544Z,89.68
2022-09-21T02:59:04.848Z,91.11
2022-09-21T03:02:02.139Z,94.32
2022-09-21T03:04:59.091Z,94.56
2022-09-21T03:07:56.494Z,92.82
2022-09-21T03:10:53.946Z,91.64
2022-09-21T03:13:51.498Z,92.32
2022-09-21T03:16:48.386Z,90.98
2022-09-21T03:19:45.480Z,91.87
2022-09-21T03:22:42.477Z,93.54
2022-09-21T03:25:39.490Z,93.41
2022-09-21T03:28:36.052Z,91.96
2022-09-21T03:31:34.628Z,92.44
2022-09-21T03:34:34.381Z,92.71
2022-09-21T03:37:31.277Z,93.48
2022-09-21T03:40:28.576Z,94.06
2022-09-21T03:43:25.277Z,93.71
2022-09-21T03:46:23.134Z,91.39
2022-09-21T03:49:20.448Z,90.11
2022-09-21T03:52:17.384Z,92.83
2022-09-21T03:55:14.938Z,92.64
2022-09-21T03:58:12.408Z,93.07
2022-09-21T04:01:09.834Z,90.64
2022-09-21T04:04:07.538Z,90.24
2022-09-21T04:07:04.649Z,92.10
2022-09-21T04:10:05.492Z,90.73
2022-09-21T04:13:03.125Z,91.21
2022-09-21T04:16:00.479Z,92.96
2022-09-21T04:18:57.506Z,90.86
2022-09-21T04:21:56.051Z,92.17
2022-09-21T04:24:53.890Z,93.63
2022-09-21T04:27:52.302Z,93.20
2022-09-21T04:30:53.753Z,92.70
2022-09-21T04:33:52.075Z,91.65
2022-09-21T04:36:49.140Z,88.77
2022-09-21T04:39:46.872Z,88.01
2022-09-21T04:42:44.316Z,89.74
2022-09-21T04:45:41.278Z,92.75
2022-09-21T04:48:39.372Z,95.86
2022-09-21T04:51:36.885Z,94.42
2022-09-21T04:54:34.353Z,95.37
2022-09-21T04:57:31.548Z,98.84
2022-09-21T05:00:28.358Z,100.00
2022-09-21T05:03:25.627Z,100.00
2022-09-21T05:06:22.708Z,100.00
2022-09-21T05:09:38.100Z,100.00
2022-09-21T05:12:39.695Z,100.00
2022-09-21T05:15:39.499Z,100.00
2022-09-21T05:18:36.460Z,100.00
2022-09-21T05:21:33.383Z,100.00
2022-09-21T05:24:30.954Z,100.00
2022-09-21T05:27:28.642Z,100.00
2022-09-21T05:30:25.787Z,100.00
2022-09-21T05:33:23.243Z,100.00
2022-09-21T05:36:42.193Z,100.00
2022-09-21T05:39:39.821Z,100.00
2022-09-21T05:42:37.823Z,100.00
2022-09-21T05:45:35.504Z,100.00
2022-09-21T05:48:43.226Z,100.00
2022-09-21T05:52:17.821Z,100.00
2022-09-21T05:55:29.708Z,100.00
2022-09-21T05:59:04.409Z,100.00
2022-09-21T06:02:11.018Z,100.00
2022-09-21T06:05:12.491Z,100.00
2022-09-21T06:08:09.569Z,100.00
2022-09-21T06:11:06.489Z,100.00
2022-09-21T06:14:03.310Z,100.00
2022-09-21T06:17:00.599Z,100.00
2022-09-21T06:19:57.609Z,100.00
2022-09-21T06:23:00.365Z,100.00
2022-09-21T06:25:58.640Z,100.00
2022-09-21T06:28:56.555Z,100.00
2022-09-21T06:31:53.289Z,100.00
2022-09-21T06:34:50.579Z,100.00
2022-09-21T06:37:47.818Z,100.00
2022-09-21T06:40:44.469Z,100.00
2022-09-21T06:43:41.382Z,100.00
2022-09-21T06:46:38.513Z,100.00
2022-09-21T06:49:39.198Z,100.00
2022-09-21T06:52:40.621Z,100.00
2022-09-21T06:55:37.218Z,100.00
2022-09-21T06:58:34.759Z,100.00
2022-09-21T07:01:31.640Z,100.00
2022-09-21T07:04:29.492Z,100.00
2022-09-21T07:07:30.327Z,100.00
2022-09-21T07:10:27.673Z,100.00
2022-09-21T07:13:25.329Z,100.00
2022-09-21T07:16:23.422Z,100.00
2022-09-21T07:19:20.567Z,100.00
2022-09-21T07:22:17.650Z,100.00
2022-09-21T07:25:14.626Z,100.00
2022-09-21T07:28:12.074Z,100.00
2022-09-21T07:31:16.658Z,100.00
2022-09-21T07:34:13.594Z,100.00
2022-09-21T07:37:10.731Z,100.00
2022-09-21T07:40:08.354Z,100.00
2022-09-21T07:43:05.582Z,100.00
2022-09-21T07:46:02.619Z,100.00
2022-09-21T07:48:59.510Z,100.00
2022-09-21T07:52:01.446Z,100.00
2022-09-21T07:55:00.617Z,100.00
2022-09-21T07:58:16.285Z,100.00
2022-09-21T08:01:13.530Z,100.00
2022-09-21T08:04:10.976Z,100.00
2022-09-21T08:07:09.078Z,100.00
2022-09-21T08:10:07.303Z,100.00
2022-09-21T08:13:04.638Z,100.00
2022-09-21T08:16:02.241Z,100.00
2022-09-21T08:18:59.945Z,100.00
2022-09-21T08:21:58.116Z,100.00
2022-09-21T08:24:55.988Z,100.00
2022-09-21T08:27:58.292Z,100.00
2022-09-21T08:30:59.354Z,100.00
2022-09-21T08:33:57.654Z,100.00
2022-09-21T08:36:55.885Z,100.00
2022-09-21T08:39:53.738Z,99.94
2022-09-21T08:43:00.328Z,100.00
2022-09-21T08:45:57.539Z,97.39
2022-09-21T08:49:16.398Z,97.23
2022-09-21T08:52:16.903Z,97.16
2022-09-21T08:55:19.352Z,98.33
2022-09-21T08:58:29.788Z,100.00
2022-09-21T09:01:51.987Z,98.72
2022-09-21T09:05:18.458Z,94.04
2022-09-21T09:08:44.359Z,97.48
2022-09-21T09:11:49.053Z,98.08
2022-09-21T09:15:19.257Z,93.72
2022-09-21T09:18:43.999Z,93.43
2022-09-21T09:21:42.056Z,96.03
2022-09-21T09:24:43.684Z,94.43
2022-09-21T09:27:42.153Z,95.36
2022-09-21T09:30:39.405Z,94.91
2022-09-21T09:33:53.119Z,91.81
2022-09-21T09:37:02.699Z,89.58
2022-09-21T09:40:00.371Z,91.73
2022-09-21T09:43:19.821Z,93.25
2022-09-21T09:46:22.724Z,93.48
2022-09-21T09:49:54.140Z,92.63
2022-09-21T09:52:54.341Z,91.98
2022-09-21T09:55:55.785Z,90.95
2022-09-21T09:58:54.572Z,88.17
2022-09-21T10:02:05.274Z,85.15
2022-09-21T10:05:06.384Z,81.50
2022-09-21T10:08:03.967Z,81.19
2022-09-21T10:11:00.734Z,82.07
2022-09-21T10:13:57.671Z,81.83
2022-09-21T10:16:54.715Z,84.18
2022-09-21T10:20:01.478Z,84.08
2022-09-21T10:22:59.254Z,82.08
2022-09-21T10:26:01.340Z,84.55
2022-09-21T10:29:00.149Z,82.99
2022-09-21T10:32:02.307Z,82.09
2022-09-21T10:35:00.969Z,77.94
2022-09-21T10:38:11.033Z,76.95
2022-09-21T10:41:08.442Z,77.75
2022-09-21T10:44:14.077Z,78.65
2022-09-21T10:47:17.931Z,78.01
2022-09-21T10:50:35.235Z,77.86
2022-09-21T10:53:36.363Z,78.85
2022-09-21T10:56:33.812Z,78.95
2022-09-21T10:59:32.396Z,78.41
2022-09-21T11:02:35.645Z,77.24
2022-09-21T11:05:34.759Z,75.87
2022-09-21T11:08:55.134Z,77.34
2022-09-21T11:12:13.833Z,77.60
2022-09-21T11:15:25.498Z,76.42
2022-09-21T11:18:47.819Z,73.42
2022-09-21T11:22:01.733Z,74.28
2022-09-21T11:25:36.917Z,73.76
2022-09-21T11:28:47.557Z,72.18
2022-09-21T11:32:09.465Z,71.44
2022-09-21T11:35:19.197Z,72.64
2022-09-21T11:38:36.752Z,71.02
2022-09-21T11:41:40.554Z,72.41
2022-09-21T11:44:58.400Z,73.40
2022-09-21T11:48:08.646Z,73.25
2022-09-21T11:51:06.729Z,71.30
2022-09-21T11:54:16.752Z,72.06
2022-09-21T11:57:38.119Z,70.53
2022-09-21T12:01:03.508Z,69.29
2022-09-21T12:04:20.034Z,67.34
2022-09-21T12:07:50.138Z,69.08
2022-09-21T12:11:12.694Z,66.98
2022-09-21T12:14:42.426Z,66.39
2022-09-21T12:17:49.818Z,63.62
2022-09-21T12:20:55.523Z,61.92
2022-09-21T12:23:55.250Z,58.18
2022-09-21T12:26:56.745Z,57.42
2022-09-21T12:29:57.241Z,60.02
2022-09-21T12:33:04.180Z,60.40
2022-09-21T12:36:41.008Z,61.22
2022-09-21T12:39:46.188Z,65.44
2022-09-21T12:42:47.032Z,65.65
2022-09-21T12:46:08.205Z,65.46
2022-09-21T12:49:21.257Z,68.34
2022-09-21T12:52:21.662Z,66.10
2022-09-21T12:55:21.969Z,69.08
2022-09-21T12:58:30.348Z,66.81
2022-09-21T13:01:43.734Z,65.75
2022-09-21T13:05:01.268Z,65.47
2022-09-21T13:08:20.086Z,67.19
2022-09-21T13:11:21.538Z,65.73
2022-09-21T13:14:18.849Z,65.64
2022-09-21T13:17:34.189Z,66.15
2022-09-21T13:20:37.864Z,64.65
2022-09-21T13:23:42.046Z,64.01
2022-09-21T13:26:52.438Z,63.06
2022-09-21T13:29:49.608Z,65.19
2022-09-21T13:32:54.750Z,63.20
2022-09-21T13:36:02.060Z,62.77
2022-09-21T13:39:17.616Z,64.19
2022-09-21T13:42:33.105Z,61.58
2022-09-21T13:45:30.060Z,62.56
2022-09-21T13:48:29.620Z,60.56
2022-09-21T13:51:27.117Z,60.26
2022-09-21T13:54:26.150Z,60.28
2022-09-21T13:57:38.448Z,59.99
2022-09-21T14:00:54.839Z,60.92
2022-09-21T14:03:57.544Z,59.87
2022-09-21T14:06:55.771Z,60.46
2022-09-21T14:10:04.954Z,59.87
2022-09-21T14:13:02.827Z,60.43
2022-09-21T14:16:45.658Z,57.96
2022-09-21T14:19:42.789Z,58.06
2022-09-21T14:22:40.280Z,59.94
2022-09-21T14:25:56.774Z,58.71
2022-09-21T14:28:54.170Z,58.62
2022-09-21T14:31:54.636Z,58.53
2022-09-21T14:34:56.695Z,57.29
2022-09-21T14:38:01.750Z,57.40
2022-09-21T14:41:04.979Z,58.60
2022-09-21T14:44:01.912Z,59.19
2022-09-21T14:47:29.421Z,60.27
2022-09-21T14:50:30.066Z,58.26
2022-09-21T14:53:39.358Z,58.58
2022-09-21T14:56:39.953Z,59.95
2022-09-21T14:59:49.519Z,63.36
2022-09-21T15:02:47.205Z,65.63
2022-09-21T15:05:44.678Z,65.37
2022-09-21T15:09:15.323Z,61.54
2022-09-21T15:12:19.243Z,63.54
2022-09-21T15:15:27.152Z,60.61
2022-09-21T15:18:25.890Z,59.66
2022-09-21T15:21:30.495Z,58.41
2022-09-21T15:24:34.103Z,60.09
2022-09-21T15:27:33.256Z,60.94
2022-09-21T15:30:33.269Z,61.46
2022-09-21T15:33:33.321Z,58.00
2022-09-21T15:36:31.382Z,58.15
2022-09-21T15:39:30.840Z,58.94
2022-09-21T15:42:28.418Z,60.84
2022-09-21T15:45:25.845Z,55.29
2022-09-21T15:48:23.518Z,56.92
2022-09-21T15:51:27.073Z,58.52
2022-09-21T15:54:37.194Z,61.11
2022-09-21T15:57:41.608Z,59.13
2022-09-21T16:00:40.045Z,58.32
2022-09-21T16:03:37.101Z,59.59
2022-09-21T16:06:45.005Z,61.59
2022-09-21T16:09:43.734Z,58.06
2022-09-21T16:12:44.466Z,58.44
2022-09-21T16:15:42.970Z,60.75
2022-09-21T16:18:46.801Z,61.08
2022-09-21T16:21:44.138Z,62.30
2022-09-21T16:24:55.643Z,62.49
2022-09-21T16:27:56.785Z,63.54
2022-09-21T16:30:56.235Z,63.46
2022-09-21T16:33:53.019Z,62.73
2022-09-21T16:36:51.513Z,65.81
2022-09-21T16:39:48.773Z,67.10
2022-09-21T16:42:46.608Z,67.38
2022-09-21T16:45:45.242Z,68.82
2022-09-21T16:48:41.790Z,68.01
2022-09-21T16:51:39.377Z,70.24
2022-09-21T16:54:37.570Z,71.43
2022-09-21T16:57:34.942Z,72.34
2022-09-21T17:00:37.891Z,71.76
2022-09-21T17:03:34.856Z,72.06
2022-09-21T17:06:31.734Z,72.29
2022-09-21T17:09:39.472Z,74.00
2022-09-21T17:12:38.251Z,74.73
2022-09-21T17:15:36.389Z,74.65
2022-09-21T17:18:35.838Z,75.02
2022-09-21T17:21:33.160Z,76.63
2022-09-21T17:24:49.169Z,75.52
2022-09-21T17:27:49.299Z,74.17
2022-09-21T17:30:46.571Z,75.17
2022-09-21T17:33:44.017Z,76.34
2022-09-21T17:36:40.984Z,77.43
2022-09-21T17:39:38.199Z,77.40
2022-09-21T17:42:38.233Z,76.50
2022-09-21T17:46:04.800Z,77.14
2022-09-21T17:49:02.918Z,78.16
2022-09-21T17:52:19.334Z,78.32
2022-09-21T17:55:16.428Z,79.48
2022-09-21T17:58:34.748Z,80.26
2022-09-21T18:01:42.171Z,80.37
2022-09-21T18:04:38.883Z,82.15
2022-09-21T18:07:36.227Z,82.11
2022-09-21T18:10:34.399Z,81.81
2022-09-21T18:13:48.792Z,82.33
2022-09-21T18:16:52.091Z,82.96
2022-09-21T18:20:18.455Z,83.40
2022-09-21T18:23:40.522Z,83.95
2022-09-21T18:26:39.277Z,84.39
2022-09-21T18:29:40.433Z,84.49
2022-09-21T18:32:41.104Z,84.34
2022-09-21T18:35:44.717Z,83.18
2022-09-21T18:39:12.199Z,83.24
2022-09-21T18:42:28.703Z,84.35
2022-09-21T18:45:32.060Z,84.05
2022-09-21T18:49:06.819Z,84.53
2022-09-21T18:52:23.010Z,84.92
2022-09-21T18:55:28.119Z,85.56
2022-09-21T18:58:25.364Z,85.51
2022-09-21T19:01:23.586Z,86.68
2022-09-21T19:04:21.220Z,86.47
2022-09-21T19:07:23.886Z,86.70
2022-09-21T19:10:44.372Z,86.84
2022-09-21T19:14:05.955Z,86.47
2022-09-21T19:17:31.113Z,86.71
2022-09-21T19:20:40.343Z,86.86
2022-09-21T19:24:03.386Z,86.69
2022-09-21T19:27:31.257Z,85.49
2022-09-21T19:30:29.556Z,86.97
2022-09-21T19:33:48.805Z,87.98
2022-09-21T19:36:49.246Z,88.16
2022-09-21T19:39:46.222Z,87.91
2022-09-21T19:43:10.820Z,87.90
2022-09-21T19:46:41.681Z,88.61
2022-09-21T19:50:16.861Z,89.55
2022-09-21T19:53:33.420Z,88.97
2022-09-21T19:56:52.125Z,88.98
2022-09-21T19:59:52.360Z,89.09
2022-09-21T20:02:58.187Z,88.62
2022-09-21T20:05:59.632Z,87.96
2022-09-21T20:09:08.471Z,88.50
2022-09-21T20:12:25.929Z,90.55
2022-09-21T20:15:28.826Z,88.70
2022-09-21T20:18:30.550Z,89.38
2022-09-21T20:21:39.556Z,87.32
2022-09-21T20:24:54.236Z,86.95
2022-09-21T20:27:58.521Z,89.68
2022-09-21T20:30:55.104Z,89.46
2022-09-21T20:33:52.067Z,89.11
2022-09-21T20:36:49.211Z,88.06
2022-09-21T20:39:46.460Z,87.57
2022-09-21T20:42:43.869Z,87.59
2022-09-21T20:45:41.296Z,87.65
2022-09-21T20:48:38.461Z,89.04
2022-09-21T20:51:36.449Z,90.17
2022-09-21T20:54:33.262Z,90.68
2022-09-21T20:57:31.948Z,90.54
2022-09-21T21:00:29.388Z,91.15
2022-09-21T21:03:26.075Z,91.48
2022-09-21T21:06:23.336Z,90.94
2022-09-21T21:09:20.322Z,90.90
2022-09-21T21:12:17.896Z,90.44
2022-09-21T21:15:15.972Z,90.91
2022-09-21T21:18:13.515Z,93.11
2022-09-21T21:21:10.298Z,92.48
2022-09-21T21:24:25.805Z,91.45
2022-09-21T21:27:24.167Z,89.61
2022-09-21T21:30:23.825Z,86.58
2022-09-21T21:33:22.252Z,85.89
2022-09-21T21:36:19.074Z,85.15
2022-09-21T21:39:16.005Z,86.24
2022-09-21T21:42:13.781Z,86.29
2022-09-21T21:45:11.334Z,87.48
2022-09-21T21:48:09.498Z,89.07
2022-09-21T21:51:06.845Z,89.12
2022-09-21T21:54:04.363Z,89.38
2022-09-21T21:57:01.551Z,91.08
2022-09-21T22:00:00.133Z,91.14
2022-09-21T22:02:57.846Z,89.70
2022-09-21T22:05:56.036Z,89.91
2022-09-21T22:08:53.437Z,90.45
2022-09-21T22:11:50.474Z,89.57
2022-09-21T22:14:47.784Z,90.03
2022-09-21T22:17:45.369Z,91.68
2022-09-21T22:20:42.444Z,92.24
2022-09-21T22:23:39.592Z,93.72
2022-09-21T22:26:40.953Z,93.38
2022-09-21T22:29:39.063Z,92.48
2022-09-21T22:32:36.604Z,91.99
2022-09-21T22:35:34.130Z,92.52
2022-09-21T22:38:31.905Z,91.86
2022-09-21T22:41:30.376Z,91.53
2022-09-21T22:44:27.335Z,91.69
2022-09-21T22:47:24.258Z,92.67
2022-09-21T22:50:21.380Z,91.82
2022-09-21T22:53:17.997Z,92.91
2022-09-21T22:56:19.997Z,92.84
2022-09-21T22:59:17.428Z,94.06
2022-09-21T23:02:14.350Z,93.37
2022-09-21T23:05:13.579Z,93.41
2022-09-21T23:08:10.399Z,93.69
2022-09-21T23:11:14.192Z,94.11
2022-09-21T23:14:11.514Z,94.83
2022-09-21T23:17:08.620Z,95.63
2022-09-21T23:20:06.412Z,93.62
2022-09-21T23:23:03.734Z,92.50
2022-09-21T23:26:27.730Z,92.32
2022-09-21T23:29:25.249Z,93.66
2022-09-21T23:32:23.198Z,94.84
2022-09-21T23:35:20.381Z,94.24
2022-09-21T23:38:17.716Z,93.60
2022-09-21T23:41:20.721Z,92.85
2022-09-21T23:44:18.445Z,93.67
2022-09-21T23:47:15.485Z,93.12
2022-09-21T23:50:12.396Z,92.27
2022-09-21T23:53:09.331Z,91.74
2022-09-21T23:56:07.174Z,91.90
2022-09-21T23:59:05.579Z,91.89
